createdAt,value
2016-05-30T00:00:15.966Z,1016.21
2016-05-30T00:01:15.938Z,1016.2
2016-05-30T00:02:15.924Z,1016.2
2016-05-30T00:03:15.911Z,1016.18
2016-05-30T00:04:15.883Z,1016.19
2016-05-30T00:05:15.870Z,1016.19
2016-05-30T00:06:16.294Z,1016.2
2016-05-30T00:07:16.204Z,1016.16
2016-05-30T00:08:15.831Z,1016.19
2016-05-30T00:09:15.802Z,1016.16
2016-05-30T00:10:15.790Z,1016.1
2016-05-30T00:11:15.777Z,1016.15
2016-05-30T00:12:15.763Z,1016.13
2016-05-30T00:13:15.735Z,1016.13
2016-05-30T00:14:15.723Z,1016.16
2016-05-30T00:15:15.709Z,1016.1
2016-05-30T00:16:15.681Z,1016.14
2016-05-30T00:17:15.668Z,1016.15
2016-05-30T00:18:15.654Z,1016.11
2016-05-30T00:19:15.626Z,1016.1
2016-05-30T00:20:15.629Z,1016.11
2016-05-30T00:21:15.600Z,1016.1
2016-05-30T00:22:15.587Z,1016.06
2016-05-30T00:23:15.575Z,1016.08
2016-05-30T00:24:15.545Z,1016.08
2016-05-30T00:25:15.533Z,1016.09
2016-05-30T00:26:15.519Z,1016.13
2016-05-30T00:27:15.507Z,1016.09
2016-05-30T00:28:15.479Z,1016.12
2016-05-30T00:29:15.466Z,1016.16
2016-05-30T00:30:15.453Z,1016.16
2016-05-30T00:31:15.439Z,1016.12
2016-05-30T00:32:15.411Z,1016.13
2016-05-30T00:33:15.398Z,1016.17
2016-05-30T00:34:15.385Z,1016.11
2016-05-30T00:35:15.372Z,1016.12
2016-05-30T00:36:15.344Z,1016.15
2016-05-30T00:37:15.331Z,1016.12
2016-05-30T00:38:15.318Z,1016.1
2016-05-30T00:39:15.304Z,1016.07
2016-05-30T00:40:15.277Z,1016.1
2016-05-30T00:41:15.264Z,1016.08
2016-05-30T00:42:15.251Z,1016.04
2016-05-30T00:43:15.238Z,1016.04
2016-05-30T00:44:15.209Z,1016.07
2016-05-30T00:45:15.196Z,1016.06
2016-05-30T00:46:15.168Z,1016.03
2016-05-30T00:47:15.155Z,1016.06
2016-05-30T00:48:15.142Z,1016.02
2016-05-30T00:49:15.129Z,1016.02
2016-05-30T00:50:15.116Z,1016.01
2016-05-30T00:51:15.103Z,1016.04
2016-05-30T00:52:15.075Z,1016.02
2016-05-30T00:53:15.061Z,1016.02
2016-05-30T00:54:15.048Z,1016.03
2016-05-30T00:55:15.036Z,1015.99
2016-05-30T00:56:15.007Z,1016.04
2016-05-30T00:57:14.994Z,1016.01
2016-05-30T00:58:14.981Z,1016.02
2016-05-30T00:59:14.969Z,1016.04
2016-05-30T01:00:14.939Z,1015.98
2016-05-30T01:01:14.927Z,1016.01
2016-05-30T01:02:14.913Z,1016.01
2016-05-30T01:03:14.885Z,1016.01
2016-05-30T01:04:14.872Z,1016.03
2016-05-30T01:05:14.860Z,1016.06
2016-05-30T01:06:14.846Z,1016.03
2016-05-30T01:07:14.818Z,1016.06
2016-05-30T01:08:14.805Z,1016.06
2016-05-30T01:09:14.776Z,1016.06
2016-05-30T01:10:14.763Z,1016.07
2016-05-30T01:11:14.750Z,1016.05
2016-05-30T01:12:14.721Z,1016.04
2016-05-30T01:13:14.709Z,1016.06
2016-05-30T01:14:14.712Z,1016.08
2016-05-30T01:15:14.682Z,1016.06
2016-05-30T01:16:14.671Z,1016.07
2016-05-30T01:17:14.642Z,1016.07
2016-05-30T01:18:14.629Z,1016.07
2016-05-30T01:19:14.615Z,1016.05
2016-05-30T01:20:14.603Z,1016.05
2016-05-30T01:21:14.731Z,1016.02
2016-05-30T01:22:14.562Z,1015.99
2016-05-30T01:23:14.548Z,1016.02
2016-05-30T01:24:14.520Z,1015.97
2016-05-30T01:25:14.507Z,1016.01
2016-05-30T01:26:14.495Z,1016.02
2016-05-30T01:27:14.481Z,1016.06
2016-05-30T01:28:14.453Z,1016.02
2016-05-30T01:29:14.439Z,1016.05
2016-05-30T01:30:14.427Z,1016.03
2016-05-30T01:31:14.414Z,1016.01
2016-05-30T01:32:14.385Z,1016.02
2016-05-30T01:33:14.372Z,1016.02
2016-05-30T01:34:14.358Z,1016.02
2016-05-30T01:35:14.331Z,1015.98
2016-05-30T01:36:14.333Z,1016.05
2016-05-30T01:37:14.305Z,1016.01
2016-05-30T01:38:14.291Z,1015.99
2016-05-30T01:39:14.263Z,1016.01
2016-05-30T01:40:14.250Z,1016.01
2016-05-30T01:41:14.238Z,1016
2016-05-30T01:42:14.224Z,1016.02
2016-05-30T01:43:14.212Z,1015.98
2016-05-30T01:44:14.183Z,1015.97
2016-05-30T01:45:14.170Z,1015.99
2016-05-30T01:46:14.141Z,1015.97
2016-05-30T01:47:14.128Z,1015.98
2016-05-30T01:48:14.115Z,1015.97
2016-05-30T01:49:14.103Z,1015.94
2016-05-30T01:50:14.074Z,1015.96
2016-05-30T01:51:14.061Z,1015.93
2016-05-30T01:52:14.048Z,1015.95
2016-05-30T01:53:14.020Z,1015.96
2016-05-30T01:54:14.006Z,1015.96
2016-05-30T01:55:13.994Z,1015.95
2016-05-30T01:56:13.980Z,1015.92
2016-05-30T01:57:13.967Z,1015.92
2016-05-30T01:58:13.939Z,1015.91
2016-05-30T01:59:13.926Z,1015.89
2016-05-30T02:00:13.897Z,1015.89
2016-05-30T02:01:13.901Z,1015.88
2016-05-30T02:02:13.872Z,1015.88
2016-05-30T02:03:13.874Z,1015.87
2016-05-30T02:04:13.846Z,1015.88
2016-05-30T02:05:13.817Z,1015.85
2016-05-30T02:06:13.805Z,1015.85
2016-05-30T02:07:13.792Z,1015.84
2016-05-30T02:08:13.764Z,1015.83
2016-05-30T02:09:13.749Z,1015.85
2016-05-30T02:10:13.738Z,1015.8
2016-05-30T02:11:13.724Z,1015.77
2016-05-30T02:12:13.696Z,1015.76
2016-05-30T02:13:13.683Z,1015.76
2016-05-30T02:14:13.670Z,1015.75
2016-05-30T02:15:13.657Z,1015.75
2016-05-30T02:16:13.644Z,1015.76
2016-05-30T02:17:13.616Z,1015.77
2016-05-30T02:18:13.602Z,1015.79
2016-05-30T02:19:13.574Z,1015.76
2016-05-30T02:20:13.562Z,1015.75
2016-05-30T02:21:13.548Z,1015.72
2016-05-30T02:22:14.207Z,1015.76
2016-05-30T02:23:13.506Z,1015.83
2016-05-30T02:24:13.493Z,1015.74
2016-05-30T02:25:13.481Z,1015.74
2016-05-30T02:26:13.453Z,1015.67
2016-05-30T02:27:13.455Z,1015.67
2016-05-30T02:28:13.426Z,1015.71
2016-05-30T02:29:13.414Z,1015.71
2016-05-30T02:30:13.400Z,1015.7
2016-05-30T02:31:13.372Z,1015.73
2016-05-30T02:32:13.358Z,1015.67
2016-05-30T02:33:13.347Z,1015.66
2016-05-30T02:34:13.317Z,1015.7
2016-05-30T02:35:13.305Z,1015.73
2016-05-30T02:36:13.291Z,1015.68
2016-05-30T02:37:13.263Z,1015.69
2016-05-30T02:38:13.250Z,1015.67
2016-05-30T02:39:13.250Z,1015.7
2016-05-30T02:40:13.264Z,1015.69
2016-05-30T02:41:13.262Z,1015.7
2016-05-30T02:42:13.276Z,1015.68
2016-05-30T02:43:13.290Z,1015.69
2016-05-30T02:44:13.280Z,1015.68
2016-05-30T02:45:13.278Z,1015.65
2016-05-30T02:46:13.274Z,1015.67
2016-05-30T02:47:13.270Z,1015.64
2016-05-30T02:48:13.251Z,1015.66
2016-05-30T02:49:13.245Z,1015.66
2016-05-30T02:50:13.235Z,1015.67
2016-05-30T02:51:13.226Z,1015.66
2016-05-30T02:52:13.201Z,1015.65
2016-05-30T02:53:13.191Z,1015.64
2016-05-30T02:54:13.181Z,1015.67
2016-05-30T02:55:13.153Z,1015.66
2016-05-30T02:56:13.142Z,1015.64
2016-05-30T02:57:13.130Z,1015.62
2016-05-30T02:58:13.119Z,1015.68
2016-05-30T02:59:13.090Z,1015.67
2016-05-30T03:00:13.079Z,1015.69
2016-05-30T03:01:13.067Z,1015.66
2016-05-30T03:02:13.038Z,1015.65
2016-05-30T03:03:13.026Z,1015.65
2016-05-30T03:04:13.014Z,1015.68
2016-05-30T03:05:12.985Z,1015.64
2016-05-30T03:06:12.973Z,1015.66
2016-05-30T03:07:13.287Z,1015.68
2016-05-30T03:08:12.945Z,1015.67
2016-05-30T03:09:12.918Z,1015.71
2016-05-30T03:10:12.906Z,1015.71
2016-05-30T03:11:12.892Z,1015.7
2016-05-30T03:12:12.879Z,1015.7
2016-05-30T03:13:12.850Z,1015.72
2016-05-30T03:14:12.837Z,1015.72
2016-05-30T03:15:12.825Z,1015.71
2016-05-30T03:16:12.812Z,1015.69
2016-05-30T03:17:12.783Z,1015.74
2016-05-30T03:18:12.786Z,1015.68
2016-05-30T03:19:12.757Z,1015.71
2016-05-30T03:20:12.728Z,1015.69
2016-05-30T03:21:12.716Z,1015.66
2016-05-30T03:22:12.702Z,1015.71
2016-05-30T03:23:12.674Z,1015.71
2016-05-30T03:24:12.661Z,1015.67
2016-05-30T03:25:12.649Z,1015.67
2016-05-30T03:26:12.635Z,1015.67
2016-05-30T03:27:12.621Z,1015.71
2016-05-30T03:28:12.594Z,1015.65
2016-05-30T03:29:12.581Z,1015.69
2016-05-30T03:30:12.568Z,1015.64
2016-05-30T03:31:12.539Z,1015.66
2016-05-30T03:32:12.526Z,1015.67
2016-05-30T03:33:12.513Z,1015.66
2016-05-30T03:34:12.484Z,1015.67
2016-05-30T03:35:12.472Z,1015.65
2016-05-30T03:36:12.459Z,1015.65
2016-05-30T03:37:12.431Z,1015.64
2016-05-30T03:38:12.418Z,1015.61
2016-05-30T03:39:12.405Z,1015.61
2016-05-30T03:40:12.391Z,1015.63
2016-05-30T03:41:12.364Z,1015.64
2016-05-30T03:42:12.351Z,1015.62
2016-05-30T03:43:12.337Z,1015.63
2016-05-30T03:44:12.325Z,1015.63
2016-05-30T03:45:12.296Z,1015.65
2016-05-30T03:46:12.283Z,1015.63
2016-05-30T03:47:12.270Z,1015.61
2016-05-30T03:48:12.257Z,1015.64
2016-05-30T03:49:12.244Z,1015.59
2016-05-30T03:50:12.216Z,1015.63
2016-05-30T03:51:12.203Z,1015.6
2016-05-30T03:52:12.221Z,1015.6
2016-05-30T03:53:12.161Z,1015.6
2016-05-30T03:54:12.148Z,1015.61
2016-05-30T03:55:12.135Z,1015.59
2016-05-30T03:56:12.107Z,1015.64
2016-05-30T03:57:12.094Z,1015.63
2016-05-30T03:58:12.080Z,1015.65
2016-05-30T03:59:12.068Z,1015.62
2016-05-30T04:00:12.040Z,1015.61
2016-05-30T04:01:12.026Z,1015.63
2016-05-30T04:02:12.013Z,1015.6
2016-05-30T04:03:12.000Z,1015.61
2016-05-30T04:04:11.972Z,1015.62
2016-05-30T04:05:11.959Z,1015.61
2016-05-30T04:06:11.946Z,1015.63
2016-05-30T04:07:11.917Z,1015.63
2016-05-30T04:08:11.904Z,1015.6
2016-05-30T04:09:11.892Z,1015.61
2016-05-30T04:10:11.863Z,1015.6
2016-05-30T04:11:11.851Z,1015.59
2016-05-30T04:12:11.837Z,1015.63
2016-05-30T04:13:11.808Z,1015.59
2016-05-30T04:14:11.796Z,1015.58
2016-05-30T04:15:11.783Z,1015.6
2016-05-30T04:16:11.770Z,1015.62
2016-05-30T04:17:11.757Z,1015.59
2016-05-30T04:18:11.728Z,1015.58
2016-05-30T04:19:11.716Z,1015.59
2016-05-30T04:20:11.703Z,1015.59
2016-05-30T04:21:11.689Z,1015.59
2016-05-30T04:22:11.661Z,1015.57
2016-05-30T04:23:11.648Z,1015.57
2016-05-30T04:24:11.619Z,1015.59
2016-05-30T04:25:11.607Z,1015.55
2016-05-30T04:26:11.593Z,1015.56
2016-05-30T04:27:11.580Z,1015.54
2016-05-30T04:28:11.552Z,1015.55
2016-05-30T04:29:11.538Z,1015.53
2016-05-30T04:30:11.526Z,1015.56
2016-05-30T04:31:11.513Z,1015.53
2016-05-30T04:32:11.485Z,1015.55
2016-05-30T04:33:11.471Z,1015.54
2016-05-30T04:34:11.459Z,1015.58
2016-05-30T04:35:11.445Z,1015.58
2016-05-30T04:36:11.417Z,1015.59
2016-05-30T04:37:11.593Z,1015.62
2016-05-30T04:38:11.376Z,1015.61
2016-05-30T04:39:11.362Z,1015.59
2016-05-30T04:40:11.350Z,1015.63
2016-05-30T04:41:11.321Z,1015.64
2016-05-30T04:42:11.308Z,1015.64
2016-05-30T04:43:11.296Z,1015.64
2016-05-30T04:44:11.283Z,1015.67
2016-05-30T04:45:11.269Z,1015.66
2016-05-30T04:46:11.242Z,1015.66
2016-05-30T04:47:11.228Z,1015.63
2016-05-30T04:48:11.200Z,1015.66
2016-05-30T04:49:11.187Z,1015.64
2016-05-30T04:50:11.174Z,1015.59
2016-05-30T04:51:11.161Z,1015.6
2016-05-30T04:52:11.133Z,1015.65
2016-05-30T04:53:11.119Z,1015.64
2016-05-30T04:54:11.106Z,1015.62
2016-05-30T04:55:11.094Z,1015.62
2016-05-30T04:56:11.065Z,1015.64
2016-05-30T04:57:11.052Z,1015.65
2016-05-30T04:58:11.039Z,1015.72
2016-05-30T04:59:11.010Z,1015.68
2016-05-30T05:00:10.997Z,1015.7
2016-05-30T05:01:10.985Z,1015.68
2016-05-30T05:02:10.971Z,1015.71
2016-05-30T05:03:10.943Z,1015.7
2016-05-30T05:04:10.930Z,1015.74
2016-05-30T05:05:10.917Z,1015.74
2016-05-30T05:06:10.904Z,1015.75
2016-05-30T05:07:10.876Z,1015.77
2016-05-30T05:08:10.862Z,1015.76
2016-05-30T05:09:10.850Z,1015.8
2016-05-30T05:10:10.821Z,1015.79
2016-05-30T05:11:10.808Z,1015.81
2016-05-30T05:12:10.795Z,1015.85
2016-05-30T05:13:10.782Z,1015.83
2016-05-30T05:14:10.769Z,1015.8
2016-05-30T05:15:10.741Z,1015.84
2016-05-30T05:16:10.728Z,1015.85
2016-05-30T05:17:10.715Z,1015.8
2016-05-30T05:18:10.686Z,1015.79
2016-05-30T05:19:10.673Z,1015.84
2016-05-30T05:20:10.645Z,1015.85
2016-05-30T05:21:10.633Z,1015.89
2016-05-30T05:22:10.620Z,1015.86
2016-05-30T05:23:10.606Z,1015.86
2016-05-30T05:24:10.594Z,1015.89
2016-05-30T05:25:10.564Z,1015.91
2016-05-30T05:26:10.552Z,1015.89
2016-05-30T05:27:10.524Z,1015.9
2016-05-30T05:28:10.527Z,1015.9
2016-05-30T05:29:10.513Z,1015.92
2016-05-30T05:30:10.484Z,1015.93
2016-05-30T05:31:10.456Z,1015.97
2016-05-30T05:32:10.443Z,1015.92
2016-05-30T05:33:10.430Z,1015.94
2016-05-30T05:34:10.401Z,1015.93
2016-05-30T05:35:10.388Z,1015.94
2016-05-30T05:36:10.376Z,1015.94
2016-05-30T05:37:10.409Z,1015.96
2016-05-30T05:38:10.334Z,1015.97
2016-05-30T05:39:10.321Z,1015.99
2016-05-30T05:40:10.308Z,1015.96
2016-05-30T05:41:10.296Z,1015.97
2016-05-30T05:42:10.267Z,1015.98
2016-05-30T05:43:10.254Z,1015.99
2016-05-30T05:44:10.240Z,1016.01
2016-05-30T05:45:10.228Z,1016
2016-05-30T05:46:10.199Z,1015.97
2016-05-30T05:47:10.187Z,1016.02
2016-05-30T05:48:10.173Z,1016.01
2016-05-30T05:49:10.161Z,1016.05
2016-05-30T05:50:10.132Z,1016.01
2016-05-30T05:51:10.119Z,1016.05
2016-05-30T05:52:10.090Z,1016.04
2016-05-30T05:53:10.077Z,1016.05
2016-05-30T05:54:10.065Z,1016.07
2016-05-30T05:55:10.052Z,1016.1
2016-05-30T05:56:10.039Z,1016.1
2016-05-30T05:57:10.010Z,1016.09
2016-05-30T05:58:09.997Z,1016.09
2016-05-30T05:59:09.985Z,1016.09
2016-05-30T06:00:09.956Z,1016.12
2016-05-30T06:01:09.943Z,1016.13
2016-05-30T06:02:09.930Z,1016.13
2016-05-30T06:03:09.902Z,1016.11
2016-05-30T06:04:09.888Z,1016.1
2016-05-30T06:05:09.876Z,1016.1
2016-05-30T06:06:09.847Z,1016.12
2016-05-30T06:07:09.849Z,1016.11
2016-05-30T06:08:09.821Z,1016.15
2016-05-30T06:09:09.793Z,1016.22
2016-05-30T06:10:09.795Z,1016.17
2016-05-30T06:11:09.767Z,1016.16
2016-05-30T06:12:09.754Z,1016.16
2016-05-30T06:13:09.725Z,1016.17
2016-05-30T06:14:09.712Z,1016.2
2016-05-30T06:15:09.699Z,1016.15
2016-05-30T06:16:09.670Z,1016.19
2016-05-30T06:17:09.658Z,1016.21
2016-05-30T06:18:09.645Z,1016.19
2016-05-30T06:19:09.631Z,1016.28
2016-05-30T06:20:09.603Z,1016.25
2016-05-30T06:21:09.590Z,1016.23
2016-05-30T06:22:09.577Z,1016.23
2016-05-30T06:23:09.564Z,1016.22
2016-05-30T06:24:09.536Z,1016.22
2016-05-30T06:25:09.522Z,1016.22
2016-05-30T06:26:09.510Z,1016.21
2016-05-30T06:27:09.481Z,1016.21
2016-05-30T06:28:10.046Z,1016.24
2016-05-30T06:29:09.455Z,1016.21
2016-05-30T06:30:09.443Z,1016.26
2016-05-30T06:31:09.413Z,1016.27
2016-05-30T06:32:09.401Z,1016.25
2016-05-30T06:33:10.841Z,1016.3
2016-05-30T06:34:09.360Z,1016.27
2016-05-30T06:35:09.347Z,1016.25
2016-05-30T06:36:09.334Z,1016.28
2016-05-30T06:37:09.321Z,1016.29
2016-05-30T06:38:09.292Z,1016.27
2016-05-30T06:39:09.279Z,1016.32
2016-05-30T06:40:09.266Z,1016.29
2016-05-30T06:41:09.237Z,1016.37
2016-05-30T06:42:09.226Z,1016.33
2016-05-30T06:43:09.212Z,1016.35
2016-05-30T06:44:09.199Z,1016.41
2016-05-30T06:45:09.186Z,1016.35
2016-05-30T06:46:09.157Z,1016.33
2016-05-30T06:47:09.145Z,1016.34
2016-05-30T06:48:09.116Z,1016.32
2016-05-30T06:49:09.120Z,1016.31
2016-05-30T06:50:09.090Z,1016.29
2016-05-30T06:51:09.092Z,1016.35
2016-05-30T06:52:09.190Z,1016.35
2016-05-30T06:53:09.051Z,1016.35
2016-05-30T06:54:09.022Z,1016.32
2016-05-30T06:55:09.011Z,1016.34
2016-05-30T06:56:08.997Z,1016.38
2016-05-30T06:57:08.984Z,1016.33
2016-05-30T06:58:08.972Z,1016.33
2016-05-30T06:59:08.942Z,1016.35
2016-05-30T07:00:08.930Z,1016.31
2016-05-30T07:01:08.901Z,1016.34
2016-05-30T07:02:08.888Z,1016.34
2016-05-30T07:03:08.875Z,1016.38
2016-05-30T07:04:08.863Z,1016.33
2016-05-30T07:05:08.834Z,1016.37
2016-05-30T07:06:08.821Z,1016.41
2016-05-30T07:07:09.371Z,1016.4
2016-05-30T07:08:08.795Z,1016.45
2016-05-30T07:09:08.766Z,1016.4
2016-05-30T07:10:08.753Z,1016.44
2016-05-30T07:11:08.741Z,1016.41
2016-05-30T07:12:08.712Z,1016.45
2016-05-30T07:13:09.198Z,1016.48
2016-05-30T07:14:08.687Z,1016.45
2016-05-30T07:15:08.673Z,1016.45
2016-05-30T07:16:08.645Z,1016.45
2016-05-30T07:17:08.632Z,1016.49
2016-05-30T07:18:08.619Z,1016.52
2016-05-30T07:19:08.590Z,1016.48
2016-05-30T07:20:08.593Z,1016.49
2016-05-30T07:21:08.564Z,1016.49
2016-05-30T07:22:09.036Z,1016.51
2016-05-30T07:23:08.539Z,1016.58
2016-05-30T07:24:08.525Z,1016.59
2016-05-30T07:25:08.512Z,1016.56
2016-05-30T07:26:08.484Z,1016.54
2016-05-30T07:27:08.472Z,1016.55
2016-05-30T07:28:08.520Z,1016.55
2016-05-30T07:29:08.430Z,1016.53
2016-05-30T07:30:08.417Z,1016.54
2016-05-30T07:31:08.403Z,1016.55
2016-05-30T07:32:08.391Z,1016.62
2016-05-30T07:33:08.971Z,1016.57
2016-05-30T07:34:08.349Z,1016.62
2016-05-30T07:35:08.336Z,1016.62
2016-05-30T07:36:08.324Z,1016.58
2016-05-30T07:37:08.310Z,1016.59
2016-05-30T07:38:08.313Z,1016.61
2016-05-30T07:39:08.268Z,1016.62
2016-05-30T07:40:08.288Z,1016.58
2016-05-30T07:41:08.243Z,1016.57
2016-05-30T07:42:08.215Z,1016.6
2016-05-30T07:43:08.201Z,1016.62
2016-05-30T07:44:08.189Z,1016.57
2016-05-30T07:45:08.176Z,1016.55
2016-05-30T07:46:08.147Z,1016.6
2016-05-30T07:47:08.134Z,1016.6
2016-05-30T07:48:08.121Z,1016.57
2016-05-30T07:49:08.093Z,1016.59
2016-05-30T07:50:09.751Z,1016.61
2016-05-30T07:51:08.067Z,1016.59
2016-05-30T07:52:08.053Z,1016.61
2016-05-30T07:53:08.041Z,1016.66
2016-05-30T07:54:08.028Z,1016.62
2016-05-30T07:55:08.015Z,1016.68
2016-05-30T07:56:07.987Z,1016.68
2016-05-30T07:57:07.973Z,1016.68
2016-05-30T07:58:07.961Z,1016.69
2016-05-30T07:59:07.947Z,1016.65
2016-05-30T08:00:07.919Z,1016.62
2016-05-30T08:01:07.906Z,1016.68
2016-05-30T08:02:07.894Z,1016.67
2016-05-30T08:03:08.224Z,1016.68
2016-05-30T08:04:07.867Z,1016.7
2016-05-30T08:05:07.839Z,1016.67
2016-05-30T08:06:07.826Z,1016.69
2016-05-30T08:07:07.844Z,1016.66
2016-05-30T08:08:07.816Z,1016.65
2016-05-30T08:09:07.788Z,1016.62
2016-05-30T08:10:07.758Z,1016.59
2016-05-30T08:11:07.746Z,1016.64
2016-05-30T08:12:07.732Z,1016.65
2016-05-30T08:13:07.720Z,1016.69
2016-05-30T08:14:07.691Z,1016.67
2016-05-30T08:15:07.679Z,1016.71
2016-05-30T08:16:07.666Z,1016.71
2016-05-30T08:17:07.652Z,1016.69
2016-05-30T08:18:07.655Z,1016.73
2016-05-30T08:19:07.611Z,1016.71
2016-05-30T08:20:07.614Z,1016.73
2016-05-30T08:21:07.585Z,1016.68
2016-05-30T08:22:07.963Z,1016.71
2016-05-30T08:23:07.560Z,1016.75
2016-05-30T08:24:07.545Z,1016.78
2016-05-30T08:25:07.533Z,1016.78
2016-05-30T08:26:07.520Z,1016.81
2016-05-30T08:27:07.492Z,1016.76
2016-05-30T08:28:07.479Z,1016.77
2016-05-30T08:29:07.466Z,1016.75
2016-05-30T08:30:07.453Z,1016.77
2016-05-30T08:31:07.439Z,1016.81
2016-05-30T08:32:07.427Z,1016.79
2016-05-30T08:33:07.414Z,1016.79
2016-05-30T08:34:07.386Z,1016.77
2016-05-30T08:35:07.372Z,1016.77
2016-05-30T08:36:07.360Z,1016.73
2016-05-30T08:37:07.347Z,1016.76
2016-05-30T08:38:07.318Z,1016.76
2016-05-30T08:39:07.321Z,1016.77
2016-05-30T08:40:07.308Z,1016.73
2016-05-30T08:41:07.280Z,1016.74
2016-05-30T08:42:07.267Z,1016.69
2016-05-30T08:43:07.268Z,1016.69
2016-05-30T08:44:07.241Z,1016.68
2016-05-30T08:45:07.227Z,1016.7
2016-05-30T08:46:07.215Z,1016.7
2016-05-30T08:47:07.186Z,1016.71
2016-05-30T08:48:07.173Z,1016.79
2016-05-30T08:49:07.176Z,1016.66
2016-05-30T08:50:07.148Z,1016.67
2016-05-30T08:51:07.135Z,1016.69
2016-05-30T08:52:07.121Z,1016.72
2016-05-30T08:53:07.108Z,1016.7
2016-05-30T08:54:07.095Z,1016.72
2016-05-30T08:55:07.067Z,1016.66
2016-05-30T08:56:07.054Z,1016.67
2016-05-30T08:57:07.042Z,1016.65
2016-05-30T08:58:07.029Z,1016.59
2016-05-30T08:59:07.015Z,1016.64
2016-05-30T09:00:07.002Z,1016.73
2016-05-30T09:01:06.989Z,1016.69
2016-05-30T09:02:06.961Z,1016.77
2016-05-30T09:03:06.995Z,1016.71
2016-05-30T09:04:06.936Z,1016.67
2016-05-30T09:05:06.922Z,1016.69
2016-05-30T09:06:06.909Z,1016.66
2016-05-30T09:07:06.896Z,1016.65
2016-05-30T09:08:06.869Z,1016.68
2016-05-30T09:09:06.871Z,1016.69
2016-05-30T09:10:06.857Z,1016.77
2016-05-30T09:11:06.829Z,1016.78
2016-05-30T09:12:06.816Z,1016.74
2016-05-30T09:13:06.803Z,1016.74
2016-05-30T09:14:06.790Z,1016.77
2016-05-30T09:15:06.777Z,1016.79
2016-05-30T09:16:06.764Z,1016.73
2016-05-30T09:17:06.751Z,1016.75
2016-05-30T09:18:06.723Z,1016.79
2016-05-30T09:19:06.710Z,1016.82
2016-05-30T09:20:06.697Z,1016.85
2016-05-30T09:21:06.715Z,1016.83
2016-05-30T09:22:07.077Z,1016.84
2016-05-30T09:23:06.658Z,1016.8
2016-05-30T09:24:06.629Z,1016.76
2016-05-30T09:25:06.632Z,1016.78
2016-05-30T09:26:06.604Z,1016.81
2016-05-30T09:27:06.606Z,1016.76
2016-05-30T09:28:06.577Z,1016.78
2016-05-30T09:29:06.565Z,1016.75
2016-05-30T09:30:06.552Z,1016.83
2016-05-30T09:31:06.523Z,1016.8
2016-05-30T09:32:06.511Z,1016.81
2016-05-30T09:33:06.498Z,1016.86
2016-05-30T09:34:06.484Z,1016.77
2016-05-30T09:35:06.472Z,1016.8
2016-05-30T09:36:06.458Z,1016.78
2016-05-30T09:37:06.431Z,1016.74
2016-05-30T09:38:06.433Z,1016.78
2016-05-30T09:39:06.404Z,1016.83
2016-05-30T09:40:06.391Z,1016.82
2016-05-30T09:41:06.378Z,1016.82
2016-05-30T09:42:06.365Z,1016.77
2016-05-30T09:43:06.353Z,1016.7
2016-05-30T09:44:06.340Z,1016.68
2016-05-30T09:45:06.310Z,1016.73
2016-05-30T09:46:06.299Z,1016.75
2016-05-30T09:47:06.285Z,1016.79
2016-05-30T09:48:06.271Z,1016.76
2016-05-30T09:49:06.260Z,1016.78
2016-05-30T09:50:06.246Z,1016.78
2016-05-30T09:51:06.218Z,1016.69
2016-05-30T09:52:06.204Z,1016.71
2016-05-30T09:53:06.223Z,1016.69
2016-05-30T09:54:06.178Z,1016.7
2016-05-30T09:55:06.165Z,1016.74
2016-05-30T09:56:06.153Z,1016.69
2016-05-30T09:57:06.156Z,1016.69
2016-05-30T09:58:06.127Z,1016.79
2016-05-30T09:59:06.114Z,1016.76
2016-05-30T10:00:06.101Z,1016.72
2016-05-30T10:01:06.073Z,1016.73
2016-05-30T10:02:06.059Z,1016.71
2016-05-30T10:03:06.047Z,1016.76
2016-05-30T10:04:06.034Z,1016.81
2016-05-30T10:05:06.022Z,1016.77
2016-05-30T10:06:06.008Z,1016.84
2016-05-30T10:07:06.214Z,1016.79
2016-05-30T10:08:05.983Z,1016.76
2016-05-30T10:09:05.954Z,1016.79
2016-05-30T10:10:05.941Z,1016.81
2016-05-30T10:11:05.928Z,1016.8
2016-05-30T10:12:05.916Z,1016.81
2016-05-30T10:13:05.918Z,1016.82
2016-05-30T10:14:05.889Z,1016.81
2016-05-30T10:15:05.877Z,1016.76
2016-05-30T10:16:05.863Z,1016.74
2016-05-30T10:17:05.850Z,1016.76
2016-05-30T10:18:05.837Z,1016.7
2016-05-30T10:19:05.824Z,1016.65
2016-05-30T10:20:05.812Z,1016.71
2016-05-30T10:21:05.798Z,1016.69
2016-05-30T10:22:05.785Z,1016.79
2016-05-30T10:23:05.757Z,1016.78
2016-05-30T10:24:05.744Z,1016.68
2016-05-30T10:25:05.746Z,1016.75
2016-05-30T10:26:05.734Z,1016.82
2016-05-30T10:27:05.706Z,1016.8
2016-05-30T10:28:05.708Z,1016.81
2016-05-30T10:29:05.679Z,1016.83
2016-05-30T10:30:05.667Z,1016.78
2016-05-30T10:31:05.653Z,1016.71
2016-05-30T10:32:05.640Z,1016.71
2016-05-30T10:33:05.628Z,1016.84
2016-05-30T10:34:05.614Z,1016.79
2016-05-30T10:35:05.602Z,1016.79
2016-05-30T10:36:05.589Z,1016.75
2016-05-30T10:37:05.576Z,1016.62
2016-05-30T10:38:05.547Z,1016.72
2016-05-30T10:39:05.534Z,1016.72
2016-05-30T10:40:05.521Z,1016.76
2016-05-30T10:41:05.509Z,1016.66
2016-05-30T10:42:05.511Z,1016.69
2016-05-30T10:43:05.514Z,1016.65
2016-05-30T10:44:05.470Z,1016.66
2016-05-30T10:45:05.457Z,1016.68
2016-05-30T10:46:05.443Z,1016.67
2016-05-30T10:47:05.447Z,1016.7
2016-05-30T10:48:05.449Z,1016.7
2016-05-30T10:49:05.404Z,1016.64
2016-05-30T10:50:05.392Z,1016.63
2016-05-30T10:51:05.380Z,1016.66
2016-05-30T10:52:05.898Z,1016.67
2016-05-30T10:53:05.369Z,1016.68
2016-05-30T10:54:05.341Z,1016.67
2016-05-30T10:55:05.327Z,1016.67
2016-05-30T10:56:05.315Z,1016.8
2016-05-30T10:57:05.318Z,1016.81
2016-05-30T10:58:05.289Z,1016.77
2016-05-30T10:59:05.276Z,1016.66
2016-05-30T11:00:05.262Z,1016.65
2016-05-30T11:01:05.250Z,1016.63
2016-05-30T11:02:05.221Z,1016.62
2016-05-30T11:03:05.223Z,1016.61
2016-05-30T11:04:05.226Z,1016.65
2016-05-30T11:05:05.183Z,1016.67
2016-05-30T11:06:05.169Z,1016.65
2016-05-30T11:07:05.156Z,1016.64
2016-05-30T11:08:05.144Z,1016.68
2016-05-30T11:09:05.130Z,1016.64
2016-05-30T11:10:05.117Z,1016.62
2016-05-30T11:11:05.105Z,1016.61
2016-05-30T11:12:05.092Z,1016.63
2016-05-30T11:13:05.079Z,1016.59
2016-05-30T11:14:05.066Z,1016.55
2016-05-30T11:15:05.053Z,1016.58
2016-05-30T11:16:05.040Z,1016.69
2016-05-30T11:17:05.024Z,1016.7
2016-05-30T11:18:05.011Z,1016.69
2016-05-30T11:19:04.999Z,1016.63
2016-05-30T11:20:04.986Z,1016.62
2016-05-30T11:21:04.973Z,1016.66
2016-05-30T11:22:04.960Z,1016.64
2016-05-30T11:23:04.947Z,1016.63
2016-05-30T11:24:04.935Z,1016.67
2016-05-30T11:25:04.921Z,1016.69
2016-05-30T11:26:04.908Z,1016.92
2016-05-30T11:27:04.895Z,1016.53
2016-05-30T11:28:04.882Z,1016.89
2016-05-30T11:29:04.869Z,1016.86
2016-05-30T11:30:04.857Z,1016.57
2016-05-30T11:31:04.843Z,1016.5
2016-05-30T11:32:04.846Z,1016.88
2016-05-30T11:33:04.833Z,1016.84
2016-05-30T11:34:04.836Z,1016.48
2016-05-30T11:35:04.807Z,1016.49
2016-05-30T11:36:04.795Z,1016.47
2016-05-30T11:37:04.781Z,1016.43
2016-05-30T11:38:04.784Z,1016.47
2016-05-30T11:39:04.771Z,1016.44
2016-05-30T11:40:04.759Z,1016.46
2016-05-30T11:41:04.761Z,1016.73
2016-05-30T11:42:04.747Z,1016.43
2016-05-30T11:43:04.735Z,1016.49
2016-05-30T11:44:04.722Z,1016.5
2016-05-30T11:45:04.709Z,1016.55
2016-05-30T11:46:04.726Z,1016.56
2016-05-30T11:47:04.750Z,1016.82
2016-05-30T11:48:04.758Z,1016.75
2016-05-30T11:49:04.765Z,1016.75
2016-05-30T11:50:04.772Z,1016.7
2016-05-30T11:51:04.770Z,1016.72
2016-05-30T11:52:04.921Z,1016.69
2016-05-30T11:53:04.774Z,1016.72
2016-05-30T11:54:04.784Z,1016.75
2016-05-30T11:55:04.779Z,1016.7
2016-05-30T11:56:04.769Z,1016.39
2016-05-30T11:57:04.758Z,1016.77
2016-05-30T11:58:04.764Z,1016.76
2016-05-30T11:59:04.754Z,1016.71
2016-05-30T12:00:04.775Z,1016.68
2016-05-30T12:01:04.764Z,1016.75
2016-05-30T12:02:04.752Z,1016.66
2016-05-30T12:03:04.756Z,1016.68
2016-05-30T12:04:04.745Z,1016.66
2016-05-30T12:05:04.748Z,1016.61
2016-05-30T12:06:04.736Z,1016.62
2016-05-30T12:07:05.176Z,1016.34